createdAt,value
2023-02-05T00:02:35.565Z,97.50
2023-02-05T00:05:18.469Z,96.90
2023-02-05T00:08:05.190Z,97.00
2023-02-05T00:10:37.307Z,97.40
2023-02-05T00:13:16.163Z,97.10
2023-02-05T00:15:51.542Z,97.20
2023-02-05T00:18:25.124Z,97.20
2023-02-05T00:21:00.340Z,97.40
2023-02-05T00:23:36.922Z,97.70
2023-02-05T00:26:19.252Z,97.80
2023-02-05T00:28:56.265Z,97.50
2023-02-05T00:34:25.490Z,97.50
2023-02-05T00:37:04.197Z,97.70
2023-02-05T00:39:43.609Z,97.40
2023-02-05T00:42:30.036Z,96.70
2023-02-05T00:45:18.648Z,97.00
2023-02-05T00:48:00.310Z,97.00
2023-02-05T00:50:40.229Z,97.20
2023-02-05T00:53:11.844Z,97.40
2023-02-05T00:55:48.675Z,97.10
2023-02-05T00:58:30.941Z,97.50
2023-02-05T01:01:21.290Z,97.40
2023-02-05T01:04:28.764Z,96.80
2023-02-05T01:07:19.840Z,97.50
2023-02-05T01:10:03.796Z,97.10
2023-02-05T01:13:04.513Z,96.90
2023-02-05T01:18:55.611Z,96.50
2023-02-05T01:21:59.854Z,98.00
2023-02-05T01:24:42.901Z,98.00
2023-02-05T01:27:26.256Z,97.50
2023-02-05T01:30:05.429Z,97.50
2023-02-05T01:32:44.801Z,97.30
2023-02-05T01:35:13.956Z,97.40
2023-02-05T01:37:41.592Z,97.20
2023-02-05T01:40:13.727Z,97.40
2023-02-05T01:42:41.656Z,96.90
2023-02-05T01:45:29.709Z,96.50
2023-02-05T01:47:59.398Z,96.90
2023-02-05T01:50:32.496Z,97.30
2023-02-05T01:53:04.561Z,97.30
2023-02-05T01:55:34.706Z,97.70
2023-02-05T01:58:02.678Z,98.40
2023-02-05T02:00:30.934Z,97.30
2023-02-05T02:03:00.107Z,97.90
2023-02-05T02:05:27.651Z,97.90
2023-02-05T02:07:55.284Z,97.70
2023-02-05T02:10:23.021Z,97.70
2023-02-05T02:12:51.582Z,97.60
2023-02-05T02:15:22.878Z,97.70
2023-02-05T02:17:53.423Z,97.80
2023-02-05T02:20:33.732Z,97.60
2023-02-05T02:23:22.509Z,97.40
2023-02-05T02:25:59.377Z,97.50
2023-02-05T02:28:36.057Z,97.30
2023-02-05T02:31:11.922Z,97.20
2023-02-05T02:34:03.000Z,97.80
2023-02-05T02:36:35.710Z,98.40
2023-02-05T02:39:15.037Z,97.40
2023-02-05T02:41:52.224Z,97.70
2023-02-05T02:44:35.442Z,97.90
2023-02-05T02:47:22.240Z,98.40
2023-02-05T02:50:14.439Z,98.80
2023-02-05T02:52:46.023Z,97.60
2023-02-05T02:55:15.499Z,97.40
2023-02-05T02:57:49.038Z,97.80
2023-02-05T03:00:21.186Z,97.50
2023-02-05T03:02:52.535Z,97.30
2023-02-05T03:05:22.439Z,96.70
2023-02-05T03:08:02.496Z,97.50
2023-02-05T03:10:42.738Z,97.30
2023-02-05T03:13:11.597Z,97.30
2023-02-05T03:15:44.610Z,97.50
2023-02-05T03:18:14.199Z,97.60
2023-02-05T03:20:47.245Z,97.90
2023-02-05T03:23:16.388Z,96.90
2023-02-05T03:25:44.576Z,96.40
2023-02-05T03:28:13.748Z,96.50
2023-02-05T03:31:08.482Z,96.30
2023-02-05T03:33:58.206Z,95.90
2023-02-05T03:36:52.788Z,95.80
2023-02-05T03:39:55.954Z,96.80
2023-02-05T03:42:44.952Z,96.70
2023-02-05T03:45:21.304Z,96.70
2023-02-05T03:48:08.754Z,96.40
2023-02-05T03:50:39.491Z,96.60
2023-02-05T03:53:24.070Z,96.50
2023-02-05T03:56:03.260Z,96.30
2023-02-05T03:58:42.304Z,96.80
2023-02-05T04:01:12.326Z,96.70
2023-02-05T04:03:42.471Z,96.50
2023-02-05T04:06:12.652Z,96.10
2023-02-05T04:08:41.312Z,96.40
2023-02-05T04:11:10.513Z,96.80
2023-02-05T04:13:40.113Z,96.40
2023-02-05T04:16:11.550Z,96.60
2023-02-05T04:18:39.854Z,96.80
2023-02-05T04:21:07.863Z,96.40
2023-02-05T04:23:38.869Z,96.20
2023-02-05T04:26:07.100Z,96.00
2023-02-05T04:28:41.698Z,95.90
2023-02-05T04:31:12.629Z,96.00
2023-02-05T04:34:09.790Z,96.20
2023-02-05T04:36:39.656Z,95.60
2023-02-05T04:39:08.332Z,94.90
2023-02-05T04:41:36.669Z,95.30
2023-02-05T04:44:06.204Z,95.90
2023-02-05T04:46:34.643Z,95.00
2023-02-05T04:49:02.855Z,95.30
2023-02-05T04:51:31.220Z,95.70
2023-02-05T04:53:59.704Z,95.80
2023-02-05T04:56:27.857Z,95.50
2023-02-05T04:58:55.999Z,95.20
2023-02-05T05:01:24.512Z,95.40
2023-02-05T05:03:52.900Z,95.40
2023-02-05T05:06:21.376Z,95.30
2023-02-05T05:08:49.801Z,95.10
2023-02-05T05:11:19.749Z,95.90
2023-02-05T05:13:49.859Z,95.10
2023-02-05T05:16:18.400Z,94.70
2023-02-05T05:18:47.047Z,95.20
2023-02-05T05:21:17.899Z,95.10
2023-02-05T05:23:45.941Z,95.40
2023-02-05T05:26:14.438Z,95.20
2023-02-05T05:28:42.733Z,95.20
2023-02-05T05:31:16.796Z,95.10
2023-02-05T05:33:45.151Z,95.10
2023-02-05T05:36:14.337Z,95.30
2023-02-05T05:38:43.002Z,94.80
2023-02-05T05:41:41.849Z,94.90
2023-02-05T05:44:10.369Z,95.00
2023-02-05T05:46:37.977Z,94.70
2023-02-05T05:49:05.601Z,95.00
2023-02-05T05:51:33.483Z,94.60
2023-02-05T05:54:01.173Z,95.20
2023-02-05T05:56:29.057Z,94.90
2023-02-05T05:58:56.603Z,95.20
2023-02-05T06:01:24.515Z,95.00
2023-02-05T06:03:52.342Z,95.60
2023-02-05T06:06:20.186Z,95.60
2023-02-05T06:08:47.818Z,95.00
2023-02-05T06:11:15.458Z,94.90
2023-02-05T06:13:43.421Z,94.60
2023-02-05T06:16:11.017Z,94.50
2023-02-05T06:18:38.663Z,94.40
2023-02-05T06:21:06.341Z,94.40
2023-02-05T06:23:34.661Z,94.40
2023-02-05T06:26:02.548Z,95.00
2023-02-05T06:28:30.280Z,96.00
2023-02-05T06:30:58.022Z,95.20
2023-02-05T06:33:25.926Z,95.40
2023-02-05T06:35:54.187Z,94.20
2023-02-05T06:38:21.844Z,94.10
2023-02-05T06:40:49.617Z,95.20
2023-02-05T06:43:17.241Z,96.00
2023-02-05T06:45:45.544Z,96.20
2023-02-05T06:48:13.495Z,95.80
2023-02-05T06:50:41.053Z,95.90
2023-02-05T06:53:10.047Z,95.60
2023-02-05T06:55:39.309Z,95.40
2023-02-05T06:58:07.987Z,95.80
2023-02-05T07:00:36.139Z,95.60
2023-02-05T07:03:04.185Z,94.60
2023-02-05T07:05:38.729Z,94.60
2023-02-05T07:08:06.856Z,95.40
2023-02-05T07:10:35.928Z,94.80
2023-02-05T07:13:06.017Z,94.20
2023-02-05T07:15:37.499Z,95.70
2023-02-05T07:18:05.572Z,95.10
2023-02-05T07:20:33.553Z,96.00
2023-02-05T07:23:01.153Z,95.60
2023-02-05T07:25:29.003Z,95.00
2023-02-05T07:27:56.648Z,94.50
2023-02-05T07:30:24.339Z,95.40
2023-02-05T07:32:51.880Z,96.40
2023-02-05T07:35:19.736Z,96.60
2023-02-05T07:37:50.089Z,96.70
2023-02-05T07:40:17.800Z,96.80
2023-02-05T07:42:45.518Z,96.70
2023-02-05T07:45:13.205Z,95.90
2023-02-05T07:47:40.910Z,96.00
2023-02-05T07:50:09.079Z,96.50
2023-02-05T07:52:36.618Z,96.60
2023-02-05T07:55:04.370Z,96.60
2023-02-05T07:57:32.662Z,96.20
2023-02-05T08:00:00.987Z,96.00
2023-02-05T08:02:28.663Z,96.60
2023-02-05T08:04:56.308Z,95.50
2023-02-05T08:07:31.637Z,95.40
2023-02-05T08:09:59.696Z,95.40
2023-02-05T08:12:28.613Z,94.20
2023-02-05T08:14:59.113Z,94.00
2023-02-05T08:17:26.705Z,93.80
2023-02-05T08:20:07.222Z,93.30
2023-02-05T08:22:37.386Z,91.80
2023-02-05T08:25:10.202Z,92.30
2023-02-05T08:27:39.157Z,91.70
2023-02-05T08:30:11.229Z,91.70
2023-02-05T08:32:41.260Z,90.80
2023-02-05T08:35:09.033Z,90.50
2023-02-05T08:37:37.398Z,90.60
2023-02-05T08:40:05.810Z,90.60
2023-02-05T08:42:33.444Z,90.90
2023-02-05T08:45:01.167Z,90.50
2023-02-05T08:47:29.168Z,90.50
2023-02-05T08:49:56.873Z,89.70
2023-02-05T08:52:24.658Z,89.60
2023-02-05T08:54:52.644Z,89.00
2023-02-05T08:57:20.378Z,88.10
2023-02-05T08:59:48.504Z,88.50
2023-02-05T09:02:16.731Z,87.00
2023-02-05T09:04:44.365Z,90.40
2023-02-05T09:07:12.117Z,89.10
2023-02-05T09:09:39.790Z,85.90
2023-02-05T09:12:07.931Z,89.50
2023-02-05T09:14:40.616Z,88.50
2023-02-05T09:17:10.384Z,90.00
2023-02-05T09:19:40.123Z,86.70
2023-02-05T09:22:11.108Z,89.70
2023-02-05T09:24:46.584Z,87.70
2023-02-05T09:27:15.077Z,89.00
2023-02-05T09:29:50.120Z,88.60
2023-02-05T09:32:17.636Z,89.10
2023-02-05T09:34:45.182Z,90.00
2023-02-05T09:37:12.826Z,88.40
2023-02-05T09:42:48.236Z,90.60
2023-02-05T09:45:38.954Z,86.70
2023-02-05T09:48:46.770Z,88.70
2023-02-05T09:51:15.964Z,88.00
2023-02-05T09:53:49.074Z,88.30
2023-02-05T09:56:18.412Z,89.70
2023-02-05T09:58:53.298Z,90.50
2023-02-05T10:01:46.864Z,88.40
2023-02-05T10:04:15.624Z,87.80
2023-02-05T10:07:23.639Z,87.50
2023-02-05T10:10:29.012Z,87.80
2023-02-05T10:13:29.680Z,88.50
2023-02-05T10:16:23.382Z,88.10
2023-02-05T10:19:20.101Z,87.80
2023-02-05T10:22:25.463Z,86.60
2023-02-05T10:25:23.732Z,85.00
2023-02-05T10:28:11.866Z,86.90
2023-02-05T10:30:56.897Z,87.00
2023-02-05T10:34:18.036Z,86.80
2023-02-05T10:36:54.738Z,88.10
2023-02-05T10:39:31.040Z,87.00
2023-02-05T10:42:17.156Z,85.50
2023-02-05T10:44:49.317Z,85.80
2023-02-05T10:47:34.529Z,86.50
2023-02-05T10:50:19.932Z,84.60
2023-02-05T10:52:48.174Z,86.50
2023-02-05T10:55:16.503Z,86.70
2023-02-05T10:57:44.796Z,85.70
2023-02-05T11:00:23.904Z,84.40
2023-02-05T11:02:59.232Z,83.40
2023-02-05T11:05:38.518Z,84.00
2023-02-05T11:08:35.612Z,87.10
2023-02-05T11:11:05.401Z,87.00
2023-02-05T11:13:38.514Z,84.90
2023-02-05T11:16:09.306Z,84.10
2023-02-05T11:18:40.783Z,86.90
2023-02-05T11:21:09.856Z,87.10
2023-02-05T11:23:40.151Z,85.80
2023-02-05T11:26:24.392Z,84.30
2023-02-05T11:28:53.259Z,84.00
2023-02-05T11:31:38.077Z,85.10
2023-02-05T11:34:08.960Z,84.40
2023-02-05T11:36:42.962Z,82.30
2023-02-05T11:39:36.905Z,82.80
2023-02-05T11:42:23.345Z,83.60
2023-02-05T11:44:59.321Z,83.40
2023-02-05T11:51:37.843Z,83.70
2023-02-05T11:54:31.463Z,83.40
2023-02-05T11:57:39.416Z,85.20
2023-02-05T12:00:18.313Z,83.20
2023-02-05T12:03:03.116Z,83.20
2023-02-05T12:05:40.872Z,85.30
2023-02-05T12:09:03.957Z,84.10
2023-02-05T12:13:27.159Z,84.10
2023-02-05T12:15:59.035Z,82.30
2023-02-05T12:19:02.646Z,82.80
2023-02-05T12:21:57.609Z,81.50
2023-02-05T12:24:56.165Z,81.00
2023-02-05T12:27:55.482Z,82.20
2023-02-05T12:37:01.267Z,81.90
2023-02-05T12:39:58.979Z,80.50
2023-02-05T12:43:14.831Z,81.90
2023-02-05T12:46:06.326Z,85.00
2023-02-05T12:48:52.078Z,79.90
2023-02-05T12:51:29.356Z,82.80
2023-02-05T12:54:03.648Z,85.30
2023-02-05T12:56:45.221Z,83.50
2023-02-05T12:59:35.450Z,84.20
2023-02-05T13:02:38.600Z,84.70
2023-02-05T13:05:27.013Z,84.50
2023-02-05T13:08:06.568Z,82.00
2023-02-05T13:10:58.334Z,81.40
2023-02-05T13:13:35.712Z,79.90
2023-02-05T13:16:09.742Z,80.30
2023-02-05T13:19:04.818Z,80.30
2023-02-05T13:22:00.148Z,80.90
2023-02-05T13:25:17.911Z,80.80
2023-02-05T13:28:13.188Z,82.70
2023-02-05T13:30:48.471Z,81.90
2023-02-05T13:33:16.851Z,80.60
2023-02-05T13:36:15.974Z,82.50
2023-02-05T13:39:26.472Z,82.60
2023-02-05T13:42:41.265Z,85.00
2023-02-05T13:45:56.645Z,85.10
2023-02-05T13:49:15.888Z,88.60
2023-02-05T13:52:52.690Z,86.50
2023-02-05T13:56:10.802Z,87.30
2023-02-05T13:59:00.893Z,88.10
2023-02-05T14:01:40.894Z,87.80
2023-02-05T14:04:40.596Z,88.10
2023-02-05T14:07:18.192Z,88.10
2023-02-05T14:10:18.050Z,89.60
2023-02-05T14:12:46.959Z,89.10
2023-02-05T14:15:33.602Z,90.50
2023-02-05T14:18:15.766Z,89.70
2023-02-05T14:20:45.760Z,89.20
2023-02-05T14:24:17.053Z,89.80
2023-02-05T14:26:56.247Z,90.00
2023-02-05T14:29:43.757Z,89.40
2023-02-05T14:32:33.279Z,89.00
2023-02-05T14:35:20.970Z,89.60
2023-02-05T14:38:03.058Z,90.00
2023-02-05T14:40:37.658Z,90.30
2023-02-05T14:43:16.412Z,90.70
2023-02-05T14:46:21.053Z,90.50
2023-02-05T14:49:03.888Z,90.50
2023-02-05T14:51:44.884Z,91.10
2023-02-05T14:54:41.971Z,90.50
2023-02-05T14:57:15.404Z,90.90
2023-02-05T15:00:16.815Z,90.80
2023-02-05T15:02:59.904Z,91.00
2023-02-05T15:06:00.746Z,91.30
2023-02-05T15:08:28.452Z,91.10
2023-02-05T15:11:23.166Z,92.00
2023-02-05T15:14:24.408Z,91.50
2023-02-05T15:17:32.278Z,91.50
2023-02-05T15:20:42.840Z,92.00
2023-02-05T15:23:23.355Z,91.80
2023-02-05T15:26:02.896Z,92.60
2023-02-05T15:28:36.204Z,91.60
2023-02-05T15:31:24.432Z,91.90
2023-02-05T15:34:29.812Z,91.80
2023-02-05T15:37:17.974Z,91.50
2023-02-05T15:39:54.865Z,91.60
2023-02-05T15:42:35.174Z,91.60
2023-02-05T15:45:34.424Z,92.10
2023-02-05T15:48:06.790Z,92.10
2023-02-05T15:50:47.367Z,91.20
2023-02-05T15:53:35.534Z,91.90
2023-02-05T15:56:27.292Z,92.00
2023-02-05T15:59:03.329Z,92.40
2023-02-05T16:01:31.500Z,92.40
2023-02-05T16:03:59.760Z,94.30
2023-02-05T16:06:30.111Z,94.10
2023-02-05T16:08:59.555Z,93.80
2023-02-05T16:11:35.801Z,94.00
2023-02-05T16:14:07.805Z,93.40
2023-02-05T16:16:38.869Z,93.30
2023-02-05T16:19:12.818Z,94.10
2023-02-05T16:22:03.031Z,93.60
2023-02-05T16:24:40.223Z,93.10
2023-02-05T16:27:35.481Z,93.50
2023-02-05T16:30:34.989Z,93.00
2023-02-05T16:33:31.216Z,93.70
2023-02-05T16:36:26.815Z,92.80
2023-02-05T16:38:57.327Z,94.90
2023-02-05T16:41:31.985Z,94.20
2023-02-05T16:44:06.099Z,92.60
2023-02-05T16:46:42.740Z,92.50
2023-02-05T16:49:48.526Z,93.40
2023-02-05T16:52:55.217Z,93.80
2023-02-05T16:55:30.811Z,93.00
2023-02-05T16:58:21.821Z,93.00
2023-02-05T17:00:59.726Z,92.70
2023-02-05T17:03:35.310Z,93.10
2023-02-05T17:06:15.873Z,92.60
2023-02-05T17:08:52.287Z,93.00
2023-02-05T17:11:38.727Z,94.00
2023-02-05T17:14:42.091Z,94.20
2023-02-05T17:17:19.113Z,95.10
2023-02-05T17:20:16.402Z,93.10
2023-02-05T17:23:03.170Z,92.80
2023-02-05T17:25:56.345Z,93.00
2023-02-05T17:28:27.860Z,94.20
2023-02-05T17:31:02.182Z,93.80
2023-02-05T17:33:42.503Z,93.70
2023-02-05T17:36:25.760Z,93.90
2023-02-05T17:39:05.329Z,93.70
2023-02-05T17:41:59.600Z,94.20
2023-02-05T17:44:35.516Z,94.00
2023-02-05T17:47:15.725Z,93.30
2023-02-05T17:49:47.052Z,94.00
2023-02-05T17:52:23.851Z,94.20
2023-02-05T17:54:55.784Z,95.50
2023-02-05T17:57:24.157Z,97.30
2023-02-05T17:59:56.954Z,97.10
2023-02-05T18:02:28.307Z,96.30
2023-02-05T18:05:05.595Z,97.00
2023-02-05T18:07:37.518Z,97.20
2023-02-05T18:10:23.350Z,99.80
2023-02-05T18:12:58.324Z,99.70
2023-02-05T18:15:31.941Z,99.90
2023-02-05T18:18:00.471Z,99.90
2023-02-05T18:23:31.357Z,99.90
2023-02-05T18:26:44.588Z,99.90
2023-02-05T18:29:30.897Z,99.60
2023-02-05T18:31:59.002Z,99.90
2023-02-05T18:34:31.379Z,99.90
2023-02-05T18:37:39.919Z,99.90
2023-02-05T18:43:24.319Z,99.90
2023-02-05T18:46:02.468Z,99.90
2023-02-05T18:52:18.862Z,99.90
2023-02-05T18:54:48.414Z,99.90
2023-02-05T18:57:32.174Z,99.90
2023-02-05T19:00:25.090Z,99.90
2023-02-05T19:02:56.624Z,99.90
2023-02-05T19:05:25.110Z,99.90
2023-02-05T19:08:50.605Z,99.90
2023-02-05T19:11:24.845Z,99.90
2023-02-05T19:14:12.003Z,99.90
2023-02-05T19:16:47.896Z,99.90
2023-02-05T19:19:42.594Z,99.90
2023-02-05T19:22:29.111Z,99.90
2023-02-05T19:28:56.895Z,99.90
2023-02-05T19:32:10.641Z,99.90
2023-02-05T19:34:43.472Z,99.90
2023-02-05T19:37:12.489Z,99.90
2023-02-05T19:39:40.650Z,99.90
2023-02-05T19:42:08.886Z,99.90
2023-02-05T19:44:39.504Z,99.90
2023-02-05T19:47:09.015Z,99.90
2023-02-05T19:49:37.130Z,99.90
2023-02-05T19:52:07.116Z,99.90
2023-02-05T19:54:36.281Z,99.90
2023-02-05T19:57:04.666Z,99.90
2023-02-05T19:59:32.985Z,99.90
2023-02-05T20:02:02.325Z,99.90
2023-02-05T20:04:30.600Z,99.90
2023-02-05T20:07:02.173Z,99.90
2023-02-05T20:09:32.242Z,99.90
2023-02-05T20:12:01.313Z,99.90
2023-02-05T20:15:02.971Z,99.90
2023-02-05T20:18:07.357Z,99.90
2023-02-05T20:24:07.540Z,99.90
2023-02-05T20:26:52.204Z,99.90
2023-02-05T20:30:21.550Z,99.90
2023-02-05T20:33:00.284Z,99.90
2023-02-05T20:35:43.007Z,99.90
2023-02-05T20:38:16.329Z,99.90
2023-02-05T20:40:47.211Z,99.90
2023-02-05T20:43:29.212Z,99.90
2023-02-05T20:46:25.525Z,99.90
2023-02-05T20:49:15.053Z,99.90
2023-02-05T20:51:59.797Z,99.90
2023-02-05T20:54:43.129Z,99.90
2023-02-05T21:08:17.476Z,99.90
2023-02-05T21:10:52.568Z,99.90
2023-02-05T21:13:24.306Z,99.90
2023-02-05T21:16:46.139Z,99.90
2023-02-05T21:19:31.429Z,99.90
2023-02-05T21:22:00.685Z,99.90
2023-02-05T21:24:28.749Z,99.90
2023-02-05T21:26:59.069Z,99.90
2023-02-05T21:29:27.380Z,99.90
2023-02-05T21:32:01.300Z,99.90
2023-02-05T21:34:33.386Z,99.90
2023-02-05T21:37:03.656Z,99.90
2023-02-05T21:39:31.457Z,99.90
2023-02-05T21:41:59.118Z,99.90
2023-02-05T21:44:26.818Z,99.90
2023-02-05T21:46:55.382Z,99.90
2023-02-05T21:49:23.119Z,99.90
2023-02-05T21:51:53.354Z,99.90
2023-02-05T21:54:25.323Z,99.90
2023-02-05T21:56:53.850Z,99.90
2023-02-05T21:59:21.614Z,99.90
2023-02-05T22:01:49.411Z,99.90
2023-02-05T22:04:17.650Z,99.90
2023-02-05T22:06:45.544Z,99.90
2023-02-05T22:09:15.344Z,99.90
2023-02-05T22:11:44.093Z,99.90
2023-02-05T22:14:12.165Z,99.90
2023-02-05T22:16:40.094Z,99.90
2023-02-05T22:19:08.498Z,99.90
2023-02-05T22:21:39.884Z,99.90
2023-02-05T22:24:10.756Z,99.90
2023-02-05T22:26:39.385Z,99.90
2023-02-05T22:29:09.095Z,99.90
2023-02-05T22:31:36.967Z,99.90
2023-02-05T22:34:05.517Z,99.90
2023-02-05T22:36:37.981Z,99.90
2023-02-05T22:39:07.285Z,99.90
2023-02-05T22:41:37.994Z,99.90
2023-02-05T22:44:07.281Z,99.90
2023-02-05T22:46:39.041Z,99.90
2023-02-05T22:49:07.201Z,99.90
2023-02-05T22:51:38.585Z,99.90
2023-02-05T22:54:08.590Z,99.90
2023-02-05T22:56:37.615Z,99.90
2023-02-05T22:59:05.898Z,99.90
2023-02-05T23:01:38.134Z,99.90
2023-02-05T23:04:07.510Z,99.90
2023-02-05T23:06:38.699Z,99.90
2023-02-05T23:09:17.960Z,99.90
2023-02-05T23:11:46.145Z,99.90
2023-02-05T23:14:16.139Z,99.90
2023-02-05T23:16:46.186Z,99.90
2023-02-05T23:19:19.939Z,99.90
2023-02-05T23:21:48.517Z,99.90
2023-02-05T23:24:18.245Z,99.90
2023-02-05T23:26:48.258Z,99.90
2023-02-05T23:29:17.307Z,99.90
2023-02-05T23:31:45.256Z,99.90
2023-02-05T23:34:13.128Z,99.90
2023-02-05T23:36:41.245Z,99.90
2023-02-05T23:39:09.146Z,99.90
2023-02-05T23:41:37.190Z,99.90
2023-02-05T23:44:19.826Z,99.90
2023-02-05T23:46:48.941Z,99.90
2023-02-05T23:49:18.028Z,99.90
2023-02-05T23:51:45.642Z,99.90
2023-02-05T23:54:13.546Z,99.90
2023-02-05T23:56:41.847Z,99.90
2023-02-05T23:59:11.115Z,99.90
